createdAt,value
2022-11-12T00:00:25.356Z,7.10
2022-11-12T00:02:59.115Z,8.00
2022-11-12T00:05:33.067Z,8.25
2022-11-12T00:08:07.082Z,8.15
2022-11-12T00:10:34.545Z,6.53
2022-11-12T00:13:01.683Z,8.27
2022-11-12T00:15:36.208Z,7.20
2022-11-12T00:18:03.462Z,7.65
2022-11-12T00:20:30.564Z,8.18
2022-11-12T00:23:04.061Z,7.05
2022-11-12T00:25:31.420Z,9.23
2022-11-12T00:28:02.413Z,8.00
2022-11-12T00:30:36.063Z,8.13
2022-11-12T00:33:04.187Z,8.13
2022-11-12T00:35:41.258Z,7.07
2022-11-12T00:38:08.489Z,6.32
2022-11-12T00:40:42.099Z,8.50
2022-11-12T00:43:09.529Z,7.50
2022-11-12T00:45:36.634Z,7.93
2022-11-12T00:48:09.961Z,7.28
2022-11-12T00:50:37.381Z,7.97
2022-11-12T00:53:11.114Z,8.35
2022-11-12T00:55:38.408Z,7.80
2022-11-12T00:58:05.623Z,7.80
2022-11-12T01:00:38.973Z,8.40
2022-11-12T01:03:06.367Z,7.63
2022-11-12T01:05:46.997Z,8.70
2022-11-12T01:08:14.290Z,8.18
2022-11-12T01:10:48.094Z,7.28
2022-11-12T01:13:15.407Z,7.30
2022-11-12T01:15:42.992Z,7.90
2022-11-12T01:20:44.391Z,7.63
2022-11-12T01:23:18.029Z,7.57
2022-11-12T01:25:45.455Z,7.35
2022-11-12T01:28:12.570Z,8.65
2022-11-12T01:30:46.001Z,8.40
2022-11-12T01:33:13.250Z,6.93
2022-11-12T01:35:42.792Z,9.45
2022-11-12T01:38:16.083Z,7.72
2022-11-12T01:40:43.261Z,9.05
2022-11-12T01:43:13.618Z,8.93
2022-11-12T01:45:52.145Z,8.23
2022-11-12T01:48:39.804Z,7.85
2022-11-12T01:51:15.210Z,6.90
2022-11-12T01:53:45.139Z,9.07
2022-11-12T01:56:12.606Z,8.30
2022-11-12T01:58:47.040Z,8.55
2022-11-12T02:01:21.016Z,7.90
2022-11-12T02:04:08.165Z,6.85
2022-11-12T02:06:42.176Z,8.52
2022-11-12T02:09:10.416Z,7.40
2022-11-12T02:11:37.615Z,9.18
2022-11-12T02:14:12.101Z,8.05
2022-11-12T02:16:43.835Z,7.65
2022-11-12T02:19:19.170Z,8.10
2022-11-12T02:21:46.687Z,6.80
2022-11-12T02:26:50.090Z,8.27
2022-11-12T02:29:17.258Z,7.45
2022-11-12T02:31:51.215Z,7.80
2022-11-12T02:34:18.392Z,7.97
2022-11-12T02:36:45.530Z,8.35
2022-11-12T02:39:19.108Z,7.97
2022-11-12T02:41:46.333Z,7.53
2022-11-12T02:44:20.248Z,7.10
2022-11-12T02:46:47.459Z,8.27
2022-11-12T02:49:14.586Z,8.32
2022-11-12T02:51:48.247Z,8.70
2022-11-12T02:54:15.532Z,8.25
2022-11-12T02:56:42.633Z,9.02
2022-11-12T02:59:16.186Z,8.00
2022-11-12T03:01:43.441Z,7.05
2022-11-12T03:04:17.132Z,8.10
2022-11-12T03:06:51.151Z,7.60
2022-11-12T03:09:25.160Z,7.30
2022-11-12T03:11:52.370Z,8.23
2022-11-12T03:14:19.618Z,8.50
2022-11-12T03:16:52.981Z,7.75
2022-11-12T03:19:20.413Z,8.40
2022-11-12T03:21:54.001Z,6.70
2022-11-12T03:24:21.254Z,7.47
2022-11-12T03:26:48.333Z,7.15
2022-11-12T03:29:21.993Z,7.03
2022-11-12T03:31:49.278Z,7.18
2022-11-12T03:34:23.044Z,8.60
2022-11-12T03:36:50.296Z,5.97
2022-11-12T03:39:17.449Z,8.60
2022-11-12T03:41:51.023Z,8.60
2022-11-12T03:44:18.250Z,7.90
2022-11-12T03:46:52.155Z,8.90
2022-11-12T03:49:19.373Z,7.75
2022-11-12T03:51:46.871Z,7.38
2022-11-12T03:54:20.022Z,7.75
2022-11-12T03:56:47.419Z,7.85
2022-11-12T03:59:21.167Z,7.93
2022-11-12T04:01:48.443Z,7.90
2022-11-12T04:04:29.184Z,8.00
2022-11-12T04:07:21.717Z,8.10
2022-11-12T04:09:55.058Z,8.48
2022-11-12T04:12:47.938Z,7.75
2022-11-12T04:15:22.046Z,7.85
2022-11-12T04:18:08.185Z,7.97
2022-11-12T04:21:00.155Z,7.90
2022-11-12T04:23:27.588Z,7.03
2022-11-12T04:26:20.181Z,7.72
2022-11-12T04:29:06.508Z,8.82
2022-11-12T04:31:40.392Z,8.23
2022-11-12T04:34:33.855Z,9.20
2022-11-12T04:37:08.063Z,6.90
2022-11-12T04:39:35.768Z,7.72
2022-11-12T04:42:28.058Z,8.82
2022-11-12T04:45:12.109Z,8.15
2022-11-12T04:47:40.440Z,7.35
2022-11-12T04:50:22.142Z,7.65
2022-11-12T04:52:49.227Z,7.20
2022-11-12T04:55:23.073Z,6.57
2022-11-12T04:57:50.338Z,7.32
2022-11-12T05:00:17.758Z,7.28
2022-11-12T05:02:51.043Z,7.05
2022-11-12T05:05:39.213Z,6.97
2022-11-12T05:08:13.052Z,7.30
2022-11-12T05:10:40.315Z,8.30
2022-11-12T05:13:07.431Z,7.35
2022-11-12T05:15:41.284Z,8.50
2022-11-12T05:18:08.517Z,7.25
2022-11-12T05:20:36.294Z,6.93
2022-11-12T05:23:10.153Z,7.13
2022-11-12T05:25:37.357Z,8.20
2022-11-12T05:28:11.083Z,8.15
2022-11-12T05:30:38.482Z,7.38
2022-11-12T05:33:12.196Z,7.95
2022-11-12T05:35:39.747Z,8.35
2022-11-12T05:38:06.986Z,8.68
2022-11-12T05:40:41.196Z,7.72
2022-11-12T05:43:08.413Z,7.38
2022-11-12T05:45:42.263Z,7.50
2022-11-12T05:48:09.435Z,8.13
2022-11-12T05:50:51.215Z,7.60
2022-11-12T05:53:30.115Z,8.25
2022-11-12T05:56:06.893Z,8.10
2022-11-12T05:58:41.255Z,8.88
2022-11-12T06:01:08.506Z,8.15
2022-11-12T06:03:35.768Z,7.13
2022-11-12T06:06:09.138Z,8.25
2022-11-12T06:08:36.342Z,8.55
2022-11-12T06:11:03.472Z,8.52
2022-11-12T06:13:47.259Z,8.80
2022-11-12T06:16:14.464Z,10.10
2022-11-12T06:18:49.286Z,8.60
2022-11-12T06:21:19.370Z,7.93
2022-11-12T06:23:46.990Z,7.95
2022-11-12T06:28:48.375Z,8.10
2022-11-12T06:31:15.818Z,7.95
2022-11-12T06:33:50.185Z,9.05
2022-11-12T06:36:18.764Z,7.90
2022-11-12T06:38:53.267Z,7.65
2022-11-12T06:41:20.535Z,8.48
2022-11-12T06:43:47.625Z,8.45
2022-11-12T06:46:22.283Z,8.98
2022-11-12T06:48:49.527Z,8.15
2022-11-12T06:51:25.269Z,7.90
2022-11-12T06:53:52.522Z,9.18
2022-11-12T06:56:19.725Z,8.25
2022-11-12T06:58:53.284Z,8.27
2022-11-12T07:01:20.686Z,8.18
2022-11-12T07:03:58.170Z,8.48
2022-11-12T07:06:32.082Z,8.38
2022-11-12T07:09:06.300Z,8.40
2022-11-12T07:11:33.536Z,7.65
2022-11-12T07:14:00.656Z,7.68
2022-11-12T07:16:34.233Z,7.63
2022-11-12T07:19:01.559Z,8.63
2022-11-12T07:21:35.157Z,7.50
2022-11-12T07:24:02.300Z,8.07
2022-11-12T07:26:36.297Z,8.40
2022-11-12T07:29:03.507Z,8.40
2022-11-12T07:31:30.610Z,9.10
2022-11-12T07:34:04.238Z,7.30
2022-11-12T07:36:31.483Z,8.93
2022-11-12T07:39:05.184Z,8.10
2022-11-12T07:41:32.339Z,8.27
2022-11-12T07:44:06.240Z,7.45
2022-11-12T07:46:33.547Z,9.23
2022-11-12T07:49:07.163Z,8.90
2022-11-12T07:51:34.384Z,9.15
2022-11-12T07:54:08.209Z,9.38
2022-11-12T07:56:35.511Z,9.15
2022-11-12T07:59:09.205Z,8.55
2022-11-12T08:01:40.492Z,7.70
2022-11-12T08:04:16.214Z,9.98
2022-11-12T08:06:50.202Z,8.70
2022-11-12T08:09:24.229Z,9.15
2022-11-12T08:11:51.405Z,9.38
2022-11-12T08:14:18.553Z,8.77
2022-11-12T08:16:53.347Z,9.25
2022-11-12T08:19:20.582Z,9.63
2022-11-12T08:21:54.411Z,9.48
2022-11-12T08:24:21.641Z,9.50
2022-11-12T08:26:48.726Z,8.73
2022-11-12T08:29:22.271Z,10.00
2022-11-12T08:31:49.513Z,9.73
2022-11-12T08:34:23.115Z,9.40
2022-11-12T08:36:50.410Z,9.07
2022-11-12T08:39:24.251Z,11.40
2022-11-12T08:41:51.606Z,9.57
2022-11-12T08:44:18.710Z,8.95
2022-11-12T08:46:52.115Z,9.88
2022-11-12T08:49:19.452Z,10.15
2022-11-12T08:51:53.262Z,9.40
2022-11-12T08:54:20.514Z,8.88
2022-11-12T08:56:47.760Z,9.45
2022-11-12T08:59:21.113Z,9.85
2022-11-12T09:01:48.394Z,9.50
2022-11-12T09:04:22.305Z,9.45
2022-11-12T09:06:56.201Z,9.15
2022-11-12T09:09:30.265Z,9.05
2022-11-12T09:11:57.512Z,9.02
2022-11-12T09:14:24.588Z,9.38
2022-11-12T09:16:58.213Z,8.65
2022-11-12T09:19:25.452Z,9.23
2022-11-12T09:21:59.293Z,8.70
2022-11-12T09:24:26.464Z,9.35
2022-11-12T09:26:54.307Z,8.45
2022-11-12T09:29:28.223Z,9.60
2022-11-12T09:31:55.456Z,9.48
2022-11-12T09:34:22.677Z,9.32
2022-11-12T09:36:56.235Z,8.82
2022-11-12T09:39:23.475Z,8.77
2022-11-12T09:42:01.802Z,9.10
2022-11-12T09:44:35.589Z,9.55
2022-11-12T09:47:14.286Z,8.55
2022-11-12T09:49:50.180Z,8.43
2022-11-12T09:52:27.206Z,9.07
2022-11-12T09:55:14.842Z,9.15
2022-11-12T09:57:48.335Z,8.40
2022-11-12T10:00:19.577Z,9.32
2022-11-12T10:03:05.368Z,8.63
2022-11-12T10:05:54.240Z,8.95
2022-11-12T10:11:19.040Z,8.75
2022-11-12T10:14:11.196Z,8.85
2022-11-12T10:16:50.853Z,8.57
2022-11-12T10:19:40.344Z,9.18
2022-11-12T10:22:19.788Z,8.18
2022-11-12T10:24:54.358Z,9.75
2022-11-12T10:27:22.917Z,8.20
2022-11-12T10:30:01.439Z,9.57
2022-11-12T10:32:28.645Z,9.35
2022-11-12T10:34:55.747Z,8.77
2022-11-12T10:37:32.319Z,8.25
2022-11-12T10:39:59.465Z,8.77
2022-11-12T10:42:27.161Z,9.32
2022-11-12T10:45:01.228Z,9.25
2022-11-12T10:47:28.879Z,8.00
2022-11-12T10:50:11.449Z,9.73
2022-11-12T10:52:38.780Z,9.48
2022-11-12T10:55:08.237Z,8.50
2022-11-12T10:57:42.222Z,7.57
2022-11-12T11:00:18.172Z,8.43
2022-11-12T11:03:02.301Z,9.30
2022-11-12T11:05:51.149Z,9.02
2022-11-12T11:11:11.031Z,8.85
2022-11-12T11:13:44.317Z,8.57
2022-11-12T11:16:13.714Z,8.43
2022-11-12T11:18:49.342Z,8.13
2022-11-12T11:21:22.787Z,9.35
2022-11-12T11:23:59.449Z,9.23
2022-11-12T11:26:36.151Z,9.40
2022-11-12T11:29:30.327Z,8.68
2022-11-12T11:32:10.175Z,8.88
2022-11-12T11:34:56.404Z,8.18
2022-11-12T11:37:23.595Z,9.02
2022-11-12T11:40:16.464Z,8.25
2022-11-12T11:42:55.728Z,8.40
2022-11-12T11:45:34.940Z,9.73
2022-11-12T11:48:22.700Z,9.10
2022-11-12T11:51:15.470Z,9.20
2022-11-12T11:53:48.526Z,7.82
2022-11-12T11:56:26.493Z,8.18
2022-11-12T11:59:00.066Z,8.50
2022-11-12T12:01:36.395Z,8.00
2022-11-12T12:04:06.374Z,7.55
2022-11-12T12:06:54.315Z,7.90
2022-11-12T12:09:27.662Z,9.47
2022-11-12T12:12:10.395Z,9.32
2022-11-12T12:14:42.766Z,7.65
2022-11-12T12:17:22.297Z,8.00
2022-11-12T12:20:00.132Z,7.82
2022-11-12T12:22:46.264Z,8.48
2022-11-12T12:25:19.011Z,8.30
2022-11-12T12:28:13.292Z,8.10
2022-11-12T12:30:46.243Z,7.80
2022-11-12T12:33:38.323Z,8.52
2022-11-12T12:36:08.583Z,9.27
2022-11-12T12:38:45.258Z,8.15
2022-11-12T12:41:15.605Z,6.93
2022-11-12T12:43:53.270Z,7.75
2022-11-12T12:46:23.304Z,8.70
2022-11-12T12:48:58.250Z,9.02
2022-11-12T12:51:28.278Z,8.65
2022-11-12T12:54:02.418Z,8.65
2022-11-12T12:56:29.879Z,8.02
2022-11-12T12:58:58.040Z,7.65
2022-11-12T13:01:38.259Z,9.00
2022-11-12T13:04:15.214Z,8.73
2022-11-12T13:06:55.526Z,8.27
2022-11-12T13:09:36.186Z,7.78
2022-11-12T13:12:06.389Z,8.80
2022-11-12T13:14:46.207Z,7.75
2022-11-12T13:17:15.228Z,6.90
2022-11-12T13:19:52.380Z,9.82
2022-11-12T13:22:19.579Z,8.80
2022-11-12T13:25:11.247Z,8.45
2022-11-12T13:27:42.560Z,7.70
2022-11-12T13:30:27.456Z,7.87
2022-11-12T13:32:55.858Z,6.80
2022-11-12T13:35:26.140Z,8.60
2022-11-12T13:38:00.281Z,8.02
2022-11-12T13:40:37.345Z,7.03
2022-11-12T13:43:11.726Z,8.55
2022-11-12T13:45:48.367Z,6.80
2022-11-12T13:48:18.090Z,7.75
2022-11-12T13:50:57.397Z,7.28
2022-11-12T13:53:32.766Z,7.35
2022-11-12T13:56:06.247Z,8.10
2022-11-12T13:58:41.362Z,7.55
2022-11-12T14:01:08.730Z,6.15
2022-11-12T14:03:50.327Z,7.22
2022-11-12T14:06:34.341Z,6.50
2022-11-12T14:09:28.343Z,7.80
2022-11-12T14:12:14.134Z,7.70
2022-11-12T14:14:51.354Z,7.65
2022-11-12T14:17:37.303Z,6.70
2022-11-12T14:20:31.311Z,7.10
2022-11-12T14:23:04.663Z,6.72
2022-11-12T14:25:38.452Z,6.30
2022-11-12T14:28:06.273Z,6.55
2022-11-12T14:30:33.462Z,6.45
2022-11-12T14:33:08.313Z,7.13
2022-11-12T14:35:36.698Z,7.65
2022-11-12T14:38:13.340Z,6.40
2022-11-12T14:40:46.635Z,7.20
2022-11-12T14:43:38.430Z,6.70
2022-11-12T14:46:06.698Z,6.75
2022-11-12T14:48:43.364Z,6.45
2022-11-12T14:51:12.476Z,6.22
2022-11-12T14:53:57.340Z,5.38
2022-11-12T14:56:47.760Z,6.50
2022-11-12T14:59:22.387Z,6.32
2022-11-12T15:05:26.311Z,7.68
2022-11-12T15:08:14.267Z,7.32
2022-11-12T15:10:42.627Z,6.50
2022-11-12T15:13:27.628Z,7.40
2022-11-12T15:15:56.847Z,6.13
2022-11-12T15:18:25.747Z,6.82
2022-11-12T15:21:15.331Z,6.57
2022-11-12T15:23:59.260Z,6.53
2022-11-12T15:26:48.574Z,6.65
2022-11-12T15:29:28.407Z,5.68
2022-11-12T15:32:01.844Z,6.22
2022-11-12T15:34:40.328Z,5.80
2022-11-12T15:37:19.787Z,6.50
2022-11-12T15:39:59.275Z,6.57
2022-11-12T15:42:26.518Z,6.53
2022-11-12T15:45:04.246Z,6.18
2022-11-12T15:47:31.557Z,6.07
2022-11-12T15:50:06.388Z,7.43
2022-11-12T15:52:33.607Z,6.82
2022-11-12T15:55:00.701Z,6.72
2022-11-12T15:57:36.513Z,6.43
2022-11-12T16:00:22.665Z,5.78
2022-11-12T16:03:03.537Z,6.40
2022-11-12T16:05:50.260Z,5.43
2022-11-12T16:08:24.548Z,6.63
2022-11-12T16:10:51.774Z,6.88
2022-11-12T16:13:35.343Z,6.28
2022-11-12T16:16:04.574Z,5.90
2022-11-12T16:18:31.672Z,6.88
2022-11-12T16:21:05.343Z,5.57
2022-11-12T16:23:32.637Z,6.68
2022-11-12T16:26:07.367Z,5.97
2022-11-12T16:28:35.558Z,6.10
2022-11-12T16:31:09.340Z,6.88
2022-11-12T16:33:36.610Z,6.55
2022-11-12T16:36:10.545Z,5.85
2022-11-12T16:38:37.721Z,6.28
2022-11-12T16:41:04.901Z,6.47
2022-11-12T16:43:38.426Z,5.38
2022-11-12T16:46:22.449Z,5.82
2022-11-12T16:48:49.711Z,5.95
2022-11-12T16:51:18.015Z,5.88
2022-11-12T16:53:52.419Z,5.97
2022-11-12T16:56:20.492Z,6.03
2022-11-12T16:58:55.422Z,6.82
2022-11-12T17:01:28.711Z,6.05
2022-11-12T17:04:03.343Z,6.47
2022-11-12T17:06:52.361Z,5.47
2022-11-12T17:09:26.409Z,6.15
2022-11-12T17:11:56.622Z,6.20
2022-11-12T17:14:30.476Z,6.60
2022-11-12T17:16:57.605Z,5.43
2022-11-12T17:19:24.727Z,6.22
2022-11-12T17:21:58.345Z,6.15
2022-11-12T17:24:27.000Z,5.05
2022-11-12T17:27:00.578Z,5.13
2022-11-12T17:29:28.474Z,6.05
2022-11-12T17:31:55.655Z,5.75
2022-11-12T17:34:29.369Z,5.60
2022-11-12T17:36:56.547Z,4.35
2022-11-12T17:39:30.376Z,4.45
2022-11-12T17:41:57.535Z,6.05
2022-11-12T17:44:31.450Z,5.68
2022-11-12T17:46:58.705Z,4.55
2022-11-12T17:49:32.382Z,5.20
2022-11-12T17:51:59.615Z,5.57
2022-11-12T17:54:26.722Z,4.38
2022-11-12T17:57:00.435Z,4.03
2022-11-12T17:59:27.670Z,5.32
2022-11-12T18:02:01.351Z,5.68
2022-11-12T18:04:30.994Z,5.25
2022-11-12T18:07:11.534Z,4.63
2022-11-12T18:09:38.790Z,4.72
2022-11-12T18:12:06.639Z,5.65
2022-11-12T18:14:40.433Z,4.72
2022-11-12T18:17:08.083Z,4.35
2022-11-12T18:19:41.856Z,4.35
2022-11-12T18:22:11.525Z,4.32
2022-11-12T18:24:45.500Z,5.15
2022-11-12T18:27:12.726Z,4.93
2022-11-12T18:29:41.538Z,4.63
2022-11-12T18:32:15.381Z,5.28
2022-11-12T18:34:45.296Z,3.90
2022-11-12T18:37:19.457Z,5.15
2022-11-12T18:39:46.681Z,4.35
2022-11-12T18:42:20.470Z,5.18
2022-11-12T18:44:48.197Z,4.60
2022-11-12T18:47:22.510Z,4.13
2022-11-12T18:49:49.666Z,4.47
2022-11-12T18:52:17.160Z,4.60
2022-11-12T18:54:51.400Z,3.80
2022-11-12T18:57:18.650Z,3.60
2022-11-12T18:59:45.733Z,3.40
2022-11-12T19:02:19.408Z,4.28
2022-11-12T19:04:46.556Z,3.97
2022-11-12T19:07:27.554Z,4.65
2022-11-12T19:10:14.583Z,3.95
2022-11-12T19:12:49.628Z,4.15
2022-11-12T19:15:16.845Z,4.10
2022-11-12T19:17:43.971Z,3.97
2022-11-12T19:20:18.401Z,4.03
2022-11-12T19:22:45.635Z,4.10
2022-11-12T19:25:19.462Z,5.18
2022-11-12T19:27:46.685Z,4.50
2022-11-12T19:30:14.139Z,4.88
2022-11-12T19:32:48.627Z,4.32
2022-11-12T19:35:15.929Z,4.25
2022-11-12T19:37:43.062Z,4.32
2022-11-12T19:40:17.492Z,4.05
2022-11-12T19:42:47.411Z,4.80
2022-11-12T19:45:21.418Z,4.90
2022-11-12T19:47:50.787Z,4.68
2022-11-12T19:50:24.943Z,4.32
2022-11-12T19:52:55.182Z,4.40
2022-11-12T19:55:22.296Z,4.45
2022-11-12T19:57:56.512Z,5.10
2022-11-12T20:00:23.710Z,3.88
2022-11-12T20:02:57.636Z,4.50
2022-11-12T20:05:25.097Z,4.43
2022-11-12T20:08:06.468Z,5.30
2022-11-12T20:10:40.335Z,4.32
2022-11-12T20:13:07.501Z,4.60
2022-11-12T20:15:41.473Z,4.45
2022-11-12T20:18:09.078Z,4.18
2022-11-12T20:23:09.494Z,4.50
2022-11-12T20:25:36.799Z,4.68
2022-11-12T20:28:03.939Z,4.07
2022-11-12T20:30:37.436Z,4.03
2022-11-12T20:33:04.747Z,4.57
2022-11-12T20:35:41.524Z,5.35
2022-11-12T20:38:08.774Z,4.32
2022-11-12T20:40:35.899Z,4.80
2022-11-12T20:43:09.684Z,5.22
2022-11-12T20:45:36.905Z,4.35
2022-11-12T20:48:04.091Z,4.80
2022-11-12T20:50:38.493Z,5.13
2022-11-12T20:53:05.741Z,5.03
2022-11-12T20:55:40.569Z,5.20
2022-11-12T20:58:36.359Z,4.80
2022-11-12T21:01:11.572Z,4.73
2022-11-12T21:03:39.708Z,5.43
2022-11-12T21:06:31.576Z,6.10
2022-11-12T21:09:00.202Z,5.85
2022-11-12T21:11:27.454Z,5.90
2022-11-12T21:14:01.585Z,4.68
2022-11-12T21:16:28.859Z,5.60
2022-11-12T21:18:56.041Z,4.82
2022-11-12T21:21:31.473Z,4.00
2022-11-12T21:24:03.564Z,4.40
2022-11-12T21:26:38.548Z,4.57
2022-11-12T21:29:07.065Z,4.68
2022-11-12T21:31:34.311Z,4.30
2022-11-12T21:34:10.430Z,5.72
2022-11-12T21:36:37.679Z,3.97
2022-11-12T21:39:11.471Z,4.30
2022-11-12T21:41:38.677Z,3.80
2022-11-12T21:44:05.861Z,3.65
2022-11-12T21:46:39.503Z,3.45
2022-11-12T21:49:06.763Z,4.50
2022-11-12T21:51:40.597Z,3.67
2022-11-12T21:54:08.099Z,3.67
2022-11-12T21:56:35.404Z,3.85
2022-11-12T21:59:10.447Z,4.43
2022-11-12T22:01:37.742Z,4.00
2022-11-12T22:04:17.984Z,4.13
2022-11-12T22:07:05.432Z,4.15
2022-11-12T22:09:39.480Z,4.15
2022-11-12T22:12:06.775Z,3.60
2022-11-12T22:14:33.881Z,3.58
2022-11-12T22:17:07.560Z,3.80
2022-11-12T22:19:34.784Z,3.80
2022-11-12T22:22:08.531Z,3.83
2022-11-12T22:24:35.805Z,3.70
2022-11-12T22:27:05.568Z,3.65
2022-11-12T22:29:39.564Z,4.22
2022-11-12T22:32:06.849Z,4.15
2022-11-12T22:34:40.587Z,3.47
2022-11-12T22:37:07.866Z,4.10
2022-11-12T22:39:34.972Z,3.95
2022-11-12T22:42:08.690Z,4.07
2022-11-12T22:44:36.080Z,3.38
2022-11-12T22:47:03.227Z,4.53
2022-11-12T22:49:36.539Z,4.28
2022-11-12T22:52:10.408Z,4.00
2022-11-12T22:54:37.754Z,3.88
2022-11-12T22:57:04.958Z,3.30
2022-11-12T22:59:38.507Z,4.70
2022-11-12T23:02:07.839Z,3.88
2022-11-12T23:04:41.668Z,4.45
2022-11-12T23:07:28.394Z,4.45
2022-11-12T23:10:02.597Z,3.67
2022-11-12T23:12:30.340Z,3.78
2022-11-12T23:14:57.459Z,4.28
2022-11-12T23:17:31.564Z,4.10
2022-11-12T23:19:58.705Z,3.75
2022-11-12T23:22:32.835Z,4.75
2022-11-12T23:25:00.141Z,3.25
2022-11-12T23:27:27.225Z,3.53
2022-11-12T23:30:00.518Z,3.72
2022-11-12T23:32:27.682Z,4.28
2022-11-12T23:35:01.551Z,3.53
2022-11-12T23:37:28.759Z,3.55
2022-11-12T23:39:55.881Z,4.10
2022-11-12T23:42:29.534Z,3.20
2022-11-12T23:44:56.731Z,4.13
2022-11-12T23:47:30.554Z,3.90
2022-11-12T23:49:57.799Z,3.80
2022-11-12T23:52:24.936Z,3.35
2022-11-12T23:54:58.577Z,3.95
2022-11-12T23:57:25.724Z,3.78
2022-11-12T23:59:59.685Z,3.88
